sensor_id;sensor_type;location;lat;lon;timestamp;P1;durP1;ratioP1;P2;durP2;ratioP2
25079;SDS011;13071;48.868;9.996;2023-05-07T00:01:28;6.68;;;4.07;;
25079;SDS011;13071;48.868;9.996;2023-05-07T00:03:55;4.53;;;3.10;;
25079;SDS011;13071;48.868;9.996;2023-05-07T00:06:21;5.63;;;3.58;;
25079;SDS011;13071;48.868;9.996;2023-05-07T00:08:48;5.85;;;3.70;;
25079;SDS011;13071;48.868;9.996;2023-05-07T00:11:14;5.28;;;3.63;;
25079;SDS011;13071;48.868;9.996;2023-05-07T00:13:41;4.18;;;3.55;;
25079;SDS011;13071;48.868;9.996;2023-05-07T00:16:09;5.15;;;3.83;;
25079;SDS011;13071;48.868;9.996;2023-05-07T00:18:36;3.50;;;3.20;;
25079;SDS011;13071;48.868;9.996;2023-05-07T00:21:02;6.10;;;3.70;;
25079;SDS011;13071;48.868;9.996;2023-05-07T00:23:29;4.10;;;3.63;;
25079;SDS011;13071;48.868;9.996;2023-05-07T00:25:56;4.50;;;3.42;;
25079;SDS011;13071;48.868;9.996;2023-05-07T00:28:22;5.78;;;3.83;;
25079;SDS011;13071;48.868;9.996;2023-05-07T00:30:49;4.40;;;3.13;;
25079;SDS011;13071;48.868;9.996;2023-05-07T00:33:17;7.15;;;3.50;;
25079;SDS011;13071;48.868;9.996;2023-05-07T00:35:45;6.88;;;4.20;;
25079;SDS011;13071;48.868;9.996;2023-05-07T00:38:11;6.10;;;3.85;;
25079;SDS011;13071;48.868;9.996;2023-05-07T00:40:38;5.22;;;3.45;;
25079;SDS011;13071;48.868;9.996;2023-05-07T00:43:05;7.25;;;3.60;;
25079;SDS011;13071;48.868;9.996;2023-05-07T00:45:32;5.07;;;3.38;;
25079;SDS011;13071;48.868;9.996;2023-05-07T00:47:59;6.65;;;3.53;;
25079;SDS011;13071;48.868;9.996;2023-05-07T00:50:28;6.25;;;3.35;;
25079;SDS011;13071;48.868;9.996;2023-05-07T00:52:56;4.53;;;3.65;;
25079;SDS011;13071;48.868;9.996;2023-05-07T00:55:23;8.52;;;3.72;;
25079;SDS011;13071;48.868;9.996;2023-05-07T00:57:50;4.63;;;3.58;;
25079;SDS011;13071;48.868;9.996;2023-05-07T01:00:17;4.22;;;3.78;;
25079;SDS011;13071;48.868;9.996;2023-05-07T01:02:44;5.55;;;3.42;;
25079;SDS011;13071;48.868;9.996;2023-05-07T01:05:12;4.70;;;3.60;;
25079;SDS011;13071;48.868;9.996;2023-05-07T01:07:42;8.85;;;3.75;;
25079;SDS011;13071;48.868;9.996;2023-05-07T01:10:09;5.43;;;3.33;;
25079;SDS011;13071;48.868;9.996;2023-05-07T01:12:37;5.40;;;3.38;;
25079;SDS011;13071;48.868;9.996;2023-05-07T01:15:05;4.28;;;3.45;;
25079;SDS011;13071;48.868;9.996;2023-05-07T01:17:34;4.75;;;3.88;;
25079;SDS011;13071;48.868;9.996;2023-05-07T01:20:01;6.30;;;4.00;;
25079;SDS011;13071;48.868;9.996;2023-05-07T01:22:31;5.70;;;3.60;;
25079;SDS011;13071;48.868;9.996;2023-05-07T01:24:59;5.10;;;3.53;;
25079;SDS011;13071;48.868;9.996;2023-05-07T01:27:26;5.57;;;3.63;;
25079;SDS011;13071;48.868;9.996;2023-05-07T01:29:53;6.13;;;3.75;;
25079;SDS011;13071;48.868;9.996;2023-05-07T01:32:21;5.22;;;3.55;;
25079;SDS011;13071;48.868;9.996;2023-05-07T01:34:53;4.57;;;3.92;;
25079;SDS011;13071;48.868;9.996;2023-05-07T01:37:21;4.20;;;3.55;;
25079;SDS011;13071;48.868;9.996;2023-05-07T01:39:50;8.32;;;4.00;;
25079;SDS011;13071;48.868;9.996;2023-05-07T01:42:18;4.45;;;3.42;;
25079;SDS011;13071;48.868;9.996;2023-05-07T01:44:45;6.82;;;3.67;;
25079;SDS011;13071;48.868;9.996;2023-05-07T01:47:12;4.85;;;3.58;;
25079;SDS011;13071;48.868;9.996;2023-05-07T01:49:39;4.68;;;3.80;;
25079;SDS011;13071;48.868;9.996;2023-05-07T01:52:07;5.93;;;3.35;;
25079;SDS011;13071;48.868;9.996;2023-05-07T01:54:34;4.95;;;3.60;;
25079;SDS011;13071;48.868;9.996;2023-05-07T01:57:02;10.93;;;4.05;;
25079;SDS011;13071;48.868;9.996;2023-05-07T01:59:29;5.30;;;4.05;;
25079;SDS011;13071;48.868;9.996;2023-05-07T02:01:55;4.72;;;3.50;;
25079;SDS011;13071;48.868;9.996;2023-05-07T02:04:22;5.63;;;3.60;;
25079;SDS011;13071;48.868;9.996;2023-05-07T02:06:49;5.90;;;3.53;;
25079;SDS011;13071;48.868;9.996;2023-05-07T02:09:16;5.28;;;3.70;;
25079;SDS011;13071;48.868;9.996;2023-05-07T02:11:42;5.68;;;3.50;;
25079;SDS011;13071;48.868;9.996;2023-05-07T02:14:10;4.25;;;3.22;;
25079;SDS011;13071;48.868;9.996;2023-05-07T02:16:37;4.20;;;3.30;;
25079;SDS011;13071;48.868;9.996;2023-05-07T02:19:03;8.13;;;3.85;;
25079;SDS011;13071;48.868;9.996;2023-05-07T02:21:30;5.95;;;3.67;;
25079;SDS011;13071;48.868;9.996;2023-05-07T02:23:56;5.35;;;4.10;;
25079;SDS011;13071;48.868;9.996;2023-05-07T02:26:23;7.00;;;4.53;;
25079;SDS011;13071;48.868;9.996;2023-05-07T02:28:50;4.70;;;3.85;;
25079;SDS011;13071;48.868;9.996;2023-05-07T02:31:19;5.97;;;3.70;;
25079;SDS011;13071;48.868;9.996;2023-05-07T02:33:45;7.22;;;3.85;;
25079;SDS011;13071;48.868;9.996;2023-05-07T02:36:12;4.85;;;3.85;;
25079;SDS011;13071;48.868;9.996;2023-05-07T02:38:39;5.25;;;4.20;;
25079;SDS011;13071;48.868;9.996;2023-05-07T02:41:05;7.85;;;3.55;;
25079;SDS011;13071;48.868;9.996;2023-05-07T02:43:32;5.18;;;3.55;;
25079;SDS011;13071;48.868;9.996;2023-05-07T02:46:02;3.95;;;3.40;;
25079;SDS011;13071;48.868;9.996;2023-05-07T02:48:31;6.38;;;3.63;;
25079;SDS011;13071;48.868;9.996;2023-05-07T02:50:58;4.63;;;3.60;;
25079;SDS011;13071;48.868;9.996;2023-05-07T02:53:25;6.20;;;3.60;;
25079;SDS011;13071;48.868;9.996;2023-05-07T02:55:52;7.30;;;3.35;;
25079;SDS011;13071;48.868;9.996;2023-05-07T02:58:19;6.90;;;3.70;;
25079;SDS011;13071;48.868;9.996;2023-05-07T03:00:45;6.05;;;4.18;;
25079;SDS011;13071;48.868;9.996;2023-05-07T03:03:12;5.90;;;3.65;;
25079;SDS011;13071;48.868;9.996;2023-05-07T03:05:40;5.60;;;3.60;;
25079;SDS011;13071;48.868;9.996;2023-05-07T03:08:07;5.28;;;3.47;;
25079;SDS011;13071;48.868;9.996;2023-05-07T03:10:34;4.55;;;3.40;;
25079;SDS011;13071;48.868;9.996;2023-05-07T03:13:01;5.50;;;3.60;;
25079;SDS011;13071;48.868;9.996;2023-05-07T03:15:28;3.22;;;2.92;;
25079;SDS011;13071;48.868;9.996;2023-05-07T03:17:55;4.93;;;3.50;;
25079;SDS011;13071;48.868;9.996;2023-05-07T03:20:22;8.80;;;3.75;;
25079;SDS011;13071;48.868;9.996;2023-05-07T03:22:50;8.20;;;3.85;;
25079;SDS011;13071;48.868;9.996;2023-05-07T03:25:16;6.55;;;3.30;;
25079;SDS011;13071;48.868;9.996;2023-05-07T03:27:43;5.85;;;4.00;;
25079;SDS011;13071;48.868;9.996;2023-05-07T03:30:10;7.10;;;3.50;;
25079;SDS011;13071;48.868;9.996;2023-05-07T03:32:37;5.45;;;3.80;;
25079;SDS011;13071;48.868;9.996;2023-05-07T03:35:04;9.02;;;4.03;;
25079;SDS011;13071;48.868;9.996;2023-05-07T03:37:32;7.25;;;3.25;;
25079;SDS011;13071;48.868;9.996;2023-05-07T03:40:00;6.28;;;3.92;;
25079;SDS011;13071;48.868;9.996;2023-05-07T03:42:27;7.25;;;3.83;;
25079;SDS011;13071;48.868;9.996;2023-05-07T03:44:54;5.07;;;3.50;;
25079;SDS011;13071;48.868;9.996;2023-05-07T03:47:21;7.28;;;3.70;;
25079;SDS011;13071;48.868;9.996;2023-05-07T03:49:48;5.00;;;3.33;;
25079;SDS011;13071;48.868;9.996;2023-05-07T03:52:15;4.68;;;3.30;;
25079;SDS011;13071;48.868;9.996;2023-05-07T03:54:47;5.57;;;3.25;;
25079;SDS011;13071;48.868;9.996;2023-05-07T03:57:15;7.15;;;4.15;;
25079;SDS011;13071;48.868;9.996;2023-05-07T03:59:41;6.78;;;3.45;;
25079;SDS011;13071;48.868;9.996;2023-05-07T04:02:08;5.57;;;3.67;;
25079;SDS011;13071;48.868;9.996;2023-05-07T04:04:34;4.70;;;3.78;;
25079;SDS011;13071;48.868;9.996;2023-05-07T04:07:01;4.22;;;3.10;;
25079;SDS011;13071;48.868;9.996;2023-05-07T04:09:28;5.47;;;3.78;;
25079;SDS011;13071;48.868;9.996;2023-05-07T04:11:54;5.15;;;3.83;;
25079;SDS011;13071;48.868;9.996;2023-05-07T04:14:22;7.93;;;3.70;;
25079;SDS011;13071;48.868;9.996;2023-05-07T04:16:49;6.22;;;3.72;;
25079;SDS011;13071;48.868;9.996;2023-05-07T04:19:15;6.22;;;3.97;;
25079;SDS011;13071;48.868;9.996;2023-05-07T04:21:42;5.15;;;3.72;;
25079;SDS011;13071;48.868;9.996;2023-05-07T04:24:09;6.53;;;4.00;;
25079;SDS011;13071;48.868;9.996;2023-05-07T04:26:36;5.28;;;3.85;;
25079;SDS011;13071;48.868;9.996;2023-05-07T04:29:02;5.25;;;3.65;;
25079;SDS011;13071;48.868;9.996;2023-05-07T04:31:30;5.05;;;3.45;;
25079;SDS011;13071;48.868;9.996;2023-05-07T04:33:57;4.18;;;3.45;;
25079;SDS011;13071;48.868;9.996;2023-05-07T04:36:23;6.72;;;3.55;;
25079;SDS011;13071;48.868;9.996;2023-05-07T04:38:52;7.35;;;3.70;;
25079;SDS011;13071;48.868;9.996;2023-05-07T04:41:19;6.20;;;3.40;;
25079;SDS011;13071;48.868;9.996;2023-05-07T04:43:45;4.45;;;3.42;;
25079;SDS011;13071;48.868;9.996;2023-05-07T04:46:12;9.68;;;4.25;;
25079;SDS011;13071;48.868;9.996;2023-05-07T04:48:40;6.07;;;3.60;;
25079;SDS011;13071;48.868;9.996;2023-05-07T04:51:06;4.47;;;3.30;;
25079;SDS011;13071;48.868;9.996;2023-05-07T04:53:33;5.68;;;3.80;;
25079;SDS011;13071;48.868;9.996;2023-05-07T04:56:00;4.80;;;3.70;;
25079;SDS011;13071;48.868;9.996;2023-05-07T04:58:26;7.13;;;3.17;;
25079;SDS011;13071;48.868;9.996;2023-05-07T05:00:56;4.30;;;3.20;;
25079;SDS011;13071;48.868;9.996;2023-05-07T05:03:23;8.75;;;3.58;;
25079;SDS011;13071;48.868;9.996;2023-05-07T05:05:51;3.75;;;3.38;;
25079;SDS011;13071;48.868;9.996;2023-05-07T05:08:18;5.22;;;3.53;;
25079;SDS011;13071;48.868;9.996;2023-05-07T05:10:45;3.75;;;3.15;;
25079;SDS011;13071;48.868;9.996;2023-05-07T05:13:13;4.63;;;3.40;;
25079;SDS011;13071;48.868;9.996;2023-05-07T05:15:40;4.95;;;3.58;;
25079;SDS011;13071;48.868;9.996;2023-05-07T05:18:06;4.97;;;3.13;;
25079;SDS011;13071;48.868;9.996;2023-05-07T05:20:33;5.80;;;3.65;;
25079;SDS011;13071;48.868;9.996;2023-05-07T05:23:01;5.43;;;3.58;;
25079;SDS011;13071;48.868;9.996;2023-05-07T05:25:27;5.45;;;3.53;;
25079;SDS011;13071;48.868;9.996;2023-05-07T05:27:54;3.67;;;3.30;;
25079;SDS011;13071;48.868;9.996;2023-05-07T05:30:21;4.18;;;3.42;;
25079;SDS011;13071;48.868;9.996;2023-05-07T05:32:48;5.22;;;3.70;;
25079;SDS011;13071;48.868;9.996;2023-05-07T05:35:14;4.05;;;3.63;;
25079;SDS011;13071;48.868;9.996;2023-05-07T05:37:41;5.63;;;3.42;;
25079;SDS011;13071;48.868;9.996;2023-05-07T05:40:10;6.03;;;3.58;;
25079;SDS011;13071;48.868;9.996;2023-05-07T05:42:37;5.13;;;3.45;;
25079;SDS011;13071;48.868;9.996;2023-05-07T05:45:03;4.00;;;3.40;;
25079;SDS011;13071;48.868;9.996;2023-05-07T05:47:31;4.97;;;3.72;;
25079;SDS011;13071;48.868;9.996;2023-05-07T05:49:57;4.57;;;3.65;;
25079;SDS011;13071;48.868;9.996;2023-05-07T05:52:24;7.32;;;3.63;;
25079;SDS011;13071;48.868;9.996;2023-05-07T05:54:51;5.32;;;3.55;;
25079;SDS011;13071;48.868;9.996;2023-05-07T05:57:18;4.68;;;3.58;;
25079;SDS011;13071;48.868;9.996;2023-05-07T05:59:45;4.50;;;3.50;;
25079;SDS011;13071;48.868;9.996;2023-05-07T06:02:12;5.47;;;3.83;;
25079;SDS011;13071;48.868;9.996;2023-05-07T06:04:39;4.45;;;3.70;;
25079;SDS011;13071;48.868;9.996;2023-05-07T06:07:07;4.20;;;3.38;;
25079;SDS011;13071;48.868;9.996;2023-05-07T06:09:34;4.07;;;3.50;;
25079;SDS011;13071;48.868;9.996;2023-05-07T06:12:00;3.40;;;3.10;;
25079;SDS011;13071;48.868;9.996;2023-05-07T06:14:28;3.88;;;3.25;;
25079;SDS011;13071;48.868;9.996;2023-05-07T06:16:55;5.75;;;3.58;;
25079;SDS011;13071;48.868;9.996;2023-05-07T06:19:21;6.40;;;3.60;;
25079;SDS011;13071;48.868;9.996;2023-05-07T06:21:49;4.90;;;3.60;;
25079;SDS011;13071;48.868;9.996;2023-05-07T06:24:15;5.47;;;3.67;;
25079;SDS011;13071;48.868;9.996;2023-05-07T06:26:42;5.93;;;3.10;;
25079;SDS011;13071;48.868;9.996;2023-05-07T06:29:08;4.70;;;3.40;;
25079;SDS011;13071;48.868;9.996;2023-05-07T06:31:36;3.70;;;3.22;;
25079;SDS011;13071;48.868;9.996;2023-05-07T06:34:03;4.18;;;3.15;;
25079;SDS011;13071;48.868;9.996;2023-05-07T06:36:30;3.97;;;3.28;;
25079;SDS011;13071;48.868;9.996;2023-05-07T06:38:56;4.18;;;2.95;;
25079;SDS011;13071;48.868;9.996;2023-05-07T06:41:23;6.70;;;2.95;;
25079;SDS011;13071;48.868;9.996;2023-05-07T06:43:50;3.28;;;2.92;;
25079;SDS011;13071;48.868;9.996;2023-05-07T06:46:17;3.42;;;3.05;;
25079;SDS011;13071;48.868;9.996;2023-05-07T06:48:45;5.30;;;2.55;;
25079;SDS011;13071;48.868;9.996;2023-05-07T06:51:12;3.90;;;2.72;;
25079;SDS011;13071;48.868;9.996;2023-05-07T06:53:38;3.10;;;2.60;;
25079;SDS011;13071;48.868;9.996;2023-05-07T06:56:05;3.72;;;2.17;;
25079;SDS011;13071;48.868;9.996;2023-05-07T06:58:32;3.97;;;2.72;;
25079;SDS011;13071;48.868;9.996;2023-05-07T07:00:59;3.38;;;2.85;;
25079;SDS011;13071;48.868;9.996;2023-05-07T07:03:25;3.05;;;2.50;;
25079;SDS011;13071;48.868;9.996;2023-05-07T07:05:53;3.08;;;2.40;;
25079;SDS011;13071;48.868;9.996;2023-05-07T07:08:21;2.42;;;2.22;;
25079;SDS011;13071;48.868;9.996;2023-05-07T07:10:48;3.28;;;2.78;;
25079;SDS011;13071;48.868;9.996;2023-05-07T07:13:14;5.00;;;3.38;;
25079;SDS011;13071;48.868;9.996;2023-05-07T07:15:41;2.40;;;2.15;;
25079;SDS011;13071;48.868;9.996;2023-05-07T07:18:07;5.25;;;2.88;;
25079;SDS011;13071;48.868;9.996;2023-05-07T07:20:34;4.13;;;3.45;;
25079;SDS011;13071;48.868;9.996;2023-05-07T07:23:02;5.60;;;2.95;;
25079;SDS011;13071;48.868;9.996;2023-05-07T07:25:28;2.55;;;2.35;;
25079;SDS011;13071;48.868;9.996;2023-05-07T07:27:55;3.33;;;2.40;;
25079;SDS011;13071;48.868;9.996;2023-05-07T07:30:21;2.83;;;2.03;;
25079;SDS011;13071;48.868;9.996;2023-05-07T07:32:48;2.15;;;1.98;;
25079;SDS011;13071;48.868;9.996;2023-05-07T07:35:15;2.50;;;2.30;;
25079;SDS011;13071;48.868;9.996;2023-05-07T07:37:41;2.67;;;1.95;;
25079;SDS011;13071;48.868;9.996;2023-05-07T07:40:10;7.13;;;2.08;;
25079;SDS011;13071;48.868;9.996;2023-05-07T07:42:38;2.30;;;2.10;;
25079;SDS011;13071;48.868;9.996;2023-05-07T07:45:05;2.22;;;2.00;;
25079;SDS011;13071;48.868;9.996;2023-05-07T07:47:32;2.63;;;2.10;;
25079;SDS011;13071;48.868;9.996;2023-05-07T07:49:59;3.05;;;2.10;;
25079;SDS011;13071;48.868;9.996;2023-05-07T07:52:25;3.92;;;2.00;;
25079;SDS011;13071;48.868;9.996;2023-05-07T07:54:52;2.40;;;2.20;;
25079;SDS011;13071;48.868;9.996;2023-05-07T07:57:20;2.15;;;1.88;;
25079;SDS011;13071;48.868;9.996;2023-05-07T07:59:46;2.92;;;1.88;;
25079;SDS011;13071;48.868;9.996;2023-05-07T08:02:13;5.75;;;1.60;;
25079;SDS011;13071;48.868;9.996;2023-05-07T08:04:39;1.73;;;1.63;;
25079;SDS011;13071;48.868;9.996;2023-05-07T08:07:08;1.50;;;1.40;;
25079;SDS011;13071;48.868;9.996;2023-05-07T08:09:35;1.67;;;1.58;;
25079;SDS011;13071;48.868;9.996;2023-05-07T08:12:01;1.90;;;1.70;;
25079;SDS011;13071;48.868;9.996;2023-05-07T08:14:29;1.70;;;1.60;;
25079;SDS011;13071;48.868;9.996;2023-05-07T08:16:56;1.77;;;1.60;;
25079;SDS011;13071;48.868;9.996;2023-05-07T08:19:23;2.58;;;1.58;;
25079;SDS011;13071;48.868;9.996;2023-05-07T08:21:49;1.30;;;1.30;;
25079;SDS011;13071;48.868;9.996;2023-05-07T08:24:16;1.80;;;1.70;;
25079;SDS011;13071;48.868;9.996;2023-05-07T08:26:43;1.67;;;1.55;;
25079;SDS011;13071;48.868;9.996;2023-05-07T08:29:10;1.85;;;1.75;;
25079;SDS011;13071;48.868;9.996;2023-05-07T08:31:38;1.75;;;1.65;;
25079;SDS011;13071;48.868;9.996;2023-05-07T08:34:05;3.80;;;1.58;;
25079;SDS011;13071;48.868;9.996;2023-05-07T08:36:32;1.55;;;1.45;;
25079;SDS011;13071;48.868;9.996;2023-05-07T08:38:59;1.60;;;1.50;;
25079;SDS011;13071;48.868;9.996;2023-05-07T08:41:26;2.15;;;1.40;;
25079;SDS011;13071;48.868;9.996;2023-05-07T08:43:52;4.25;;;1.50;;
25079;SDS011;13071;48.868;9.996;2023-05-07T08:46:24;1.35;;;1.33;;
25079;SDS011;13071;48.868;9.996;2023-05-07T08:48:53;1.33;;;1.27;;
25079;SDS011;13071;48.868;9.996;2023-05-07T08:51:20;1.77;;;1.48;;
25079;SDS011;13071;48.868;9.996;2023-05-07T08:53:48;1.80;;;1.45;;
25079;SDS011;13071;48.868;9.996;2023-05-07T08:56:15;1.60;;;1.50;;
25079;SDS011;13071;48.868;9.996;2023-05-07T08:58:43;1.52;;;1.45;;
25079;SDS011;13071;48.868;9.996;2023-05-07T09:01:12;1.50;;;1.50;;
25079;SDS011;13071;48.868;9.996;2023-05-07T09:03:40;2.10;;;1.58;;
25079;SDS011;13071;48.868;9.996;2023-05-07T09:06:11;1.40;;;1.40;;
25079;SDS011;13071;48.868;9.996;2023-05-07T09:08:38;1.48;;;1.38;;
25079;SDS011;13071;48.868;9.996;2023-05-07T09:11:04;1.60;;;1.50;;
25079;SDS011;13071;48.868;9.996;2023-05-07T09:13:31;1.60;;;1.50;;
25079;SDS011;13071;48.868;9.996;2023-05-07T09:15:57;3.70;;;1.63;;
25079;SDS011;13071;48.868;9.996;2023-05-07T09:18:24;3.75;;;1.50;;
25079;SDS011;13071;48.868;9.996;2023-05-07T09:20:51;1.80;;;1.70;;
25079;SDS011;13071;48.868;9.996;2023-05-07T09:23:19;2.92;;;1.50;;
25079;SDS011;13071;48.868;9.996;2023-05-07T09:25:46;5.00;;;1.40;;
25079;SDS011;13071;48.868;9.996;2023-05-07T09:28:13;1.80;;;1.70;;
25079;SDS011;13071;48.868;9.996;2023-05-07T09:30:39;1.50;;;1.40;;
25079;SDS011;13071;48.868;9.996;2023-05-07T09:33:06;1.45;;;1.35;;
25079;SDS011;13071;48.868;9.996;2023-05-07T09:35:32;1.38;;;1.27;;
25079;SDS011;13071;48.868;9.996;2023-05-07T09:37:59;1.60;;;1.50;;
25079;SDS011;13071;48.868;9.996;2023-05-07T09:40:29;2.97;;;1.45;;
25079;SDS011;13071;48.868;9.996;2023-05-07T09:43:07;1.30;;;1.20;;
25079;SDS011;13071;48.868;9.996;2023-05-07T09:45:35;2.47;;;1.38;;
25079;SDS011;13071;48.868;9.996;2023-05-07T09:48:02;1.77;;;1.58;;
25079;SDS011;13071;48.868;9.996;2023-05-07T09:50:32;2.33;;;1.60;;
25079;SDS011;13071;48.868;9.996;2023-05-07T09:53:03;1.60;;;1.50;;
25079;SDS011;13071;48.868;9.996;2023-05-07T09:55:31;1.50;;;1.40;;
25079;SDS011;13071;48.868;9.996;2023-05-07T09:57:58;2.67;;;1.80;;
25079;SDS011;13071;48.868;9.996;2023-05-07T10:00:27;2.40;;;1.30;;
25079;SDS011;13071;48.868;9.996;2023-05-07T10:02:55;2.83;;;1.52;;
25079;SDS011;13071;48.868;9.996;2023-05-07T10:05:23;2.13;;;1.60;;
25079;SDS011;13071;48.868;9.996;2023-05-07T10:07:51;1.98;;;1.20;;
25079;SDS011;13071;48.868;9.996;2023-05-07T10:10:19;1.55;;;1.45;;
25079;SDS011;13071;48.868;9.996;2023-05-07T10:12:47;1.48;;;1.38;;
25079;SDS011;13071;48.868;9.996;2023-05-07T10:15:15;1.48;;;1.48;;
25079;SDS011;13071;48.868;9.996;2023-05-07T10:17:42;2.85;;;1.25;;
25079;SDS011;13071;48.868;9.996;2023-05-07T10:20:10;1.50;;;1.40;;
25079;SDS011;13071;48.868;9.996;2023-05-07T10:22:38;1.50;;;1.40;;
25079;SDS011;13071;48.868;9.996;2023-05-07T10:25:09;4.68;;;1.60;;
25079;SDS011;13071;48.868;9.996;2023-05-07T10:27:43;1.77;;;1.50;;
25079;SDS011;13071;48.868;9.996;2023-05-07T10:30:15;1.48;;;1.40;;
25079;SDS011;13071;48.868;9.996;2023-05-07T10:32:53;4.40;;;1.55;;
25079;SDS011;13071;48.868;9.996;2023-05-07T10:35:24;1.98;;;1.30;;
25079;SDS011;13071;48.868;9.996;2023-05-07T10:37:55;1.65;;;1.58;;
25079;SDS011;13071;48.868;9.996;2023-05-07T10:40:22;1.77;;;1.58;;
25079;SDS011;13071;48.868;9.996;2023-05-07T10:42:55;1.40;;;1.40;;
25079;SDS011;13071;48.868;9.996;2023-05-07T10:45:26;1.90;;;1.70;;
25079;SDS011;13071;48.868;9.996;2023-05-07T10:48:06;4.18;;;2.10;;
25079;SDS011;13071;48.868;9.996;2023-05-07T10:50:33;1.88;;;1.77;;
25079;SDS011;13071;48.868;9.996;2023-05-07T10:55:51;1.70;;;1.60;;
25079;SDS011;13071;48.868;9.996;2023-05-07T10:58:50;2.25;;;1.55;;
25079;SDS011;13071;48.868;9.996;2023-05-07T11:01:21;1.70;;;1.60;;
25079;SDS011;13071;48.868;9.996;2023-05-07T11:04:17;1.80;;;1.70;;
25079;SDS011;13071;48.868;9.996;2023-05-07T11:10:00;1.73;;;1.63;;
25079;SDS011;13071;48.868;9.996;2023-05-07T11:15:15;2.15;;;1.52;;
25079;SDS011;13071;48.868;9.996;2023-05-07T11:18:02;1.77;;;1.67;;
25079;SDS011;13071;48.868;9.996;2023-05-07T11:20:45;6.90;;;1.80;;
25079;SDS011;13071;48.868;9.996;2023-05-07T11:26:22;2.25;;;2.05;;
25079;SDS011;13071;48.868;9.996;2023-05-07T11:28:49;5.20;;;2.22;;
25079;SDS011;13071;48.868;9.996;2023-05-07T11:31:20;2.28;;;2.08;;
25079;SDS011;13071;48.868;9.996;2023-05-07T11:33:49;1.70;;;1.60;;
25079;SDS011;13071;48.868;9.996;2023-05-07T11:36:18;2.25;;;1.67;;
25079;SDS011;13071;48.868;9.996;2023-05-07T11:38:45;1.92;;;1.77;;
25079;SDS011;13071;48.868;9.996;2023-05-07T11:41:12;2.05;;;1.92;;
25079;SDS011;13071;48.868;9.996;2023-05-07T11:43:52;1.58;;;1.55;;
25079;SDS011;13071;48.868;9.996;2023-05-07T11:46:21;1.80;;;1.70;;
25079;SDS011;13071;48.868;9.996;2023-05-07T11:48:47;1.80;;;1.70;;
25079;SDS011;13071;48.868;9.996;2023-05-07T11:51:16;2.72;;;2.15;;
25079;SDS011;13071;48.868;9.996;2023-05-07T11:53:45;1.83;;;1.73;;
25079;SDS011;13071;48.868;9.996;2023-05-07T11:56:12;1.70;;;1.60;;
25079;SDS011;13071;48.868;9.996;2023-05-07T11:58:39;1.55;;;1.52;;
25079;SDS011;13071;48.868;9.996;2023-05-07T12:01:07;1.55;;;1.55;;
25079;SDS011;13071;48.868;9.996;2023-05-07T12:03:35;2.92;;;2.10;;
25079;SDS011;13071;48.868;9.996;2023-05-07T12:06:02;1.85;;;1.67;;
25079;SDS011;13071;48.868;9.996;2023-05-07T12:08:33;1.80;;;1.70;;
25079;SDS011;13071;48.868;9.996;2023-05-07T12:11:03;1.70;;;1.60;;
25079;SDS011;13071;48.868;9.996;2023-05-07T12:13:29;1.73;;;1.63;;
25079;SDS011;13071;48.868;9.996;2023-05-07T12:15:56;2.20;;;2.00;;
25079;SDS011;13071;48.868;9.996;2023-05-07T12:18:23;1.90;;;1.80;;
25079;SDS011;13071;48.868;9.996;2023-05-07T12:20:50;4.03;;;1.73;;
25079;SDS011;13071;48.868;9.996;2023-05-07T12:23:17;1.73;;;1.63;;
25079;SDS011;13071;48.868;9.996;2023-05-07T12:25:45;2.40;;;1.60;;
25079;SDS011;13071;48.868;9.996;2023-05-07T12:28:12;2.00;;;1.90;;
25079;SDS011;13071;48.868;9.996;2023-05-07T12:30:40;1.80;;;1.70;;
25079;SDS011;13071;48.868;9.996;2023-05-07T12:33:08;3.17;;;1.70;;
25079;SDS011;13071;48.868;9.996;2023-05-07T12:35:36;1.67;;;1.58;;
25079;SDS011;13071;48.868;9.996;2023-05-07T12:38:07;2.47;;;1.75;;
25079;SDS011;13071;48.868;9.996;2023-05-07T12:40:35;1.50;;;1.40;;
25079;SDS011;13071;48.868;9.996;2023-05-07T12:43:03;2.20;;;1.90;;
25079;SDS011;13071;48.868;9.996;2023-05-07T12:45:30;2.40;;;1.58;;
25079;SDS011;13071;48.868;9.996;2023-05-07T12:47:57;1.60;;;1.50;;
25079;SDS011;13071;48.868;9.996;2023-05-07T12:50:30;2.03;;;1.70;;
25079;SDS011;13071;48.868;9.996;2023-05-07T12:52:58;1.58;;;1.40;;
25079;SDS011;13071;48.868;9.996;2023-05-07T12:55:24;4.13;;;1.85;;
25079;SDS011;13071;48.868;9.996;2023-05-07T12:57:51;1.80;;;1.70;;
25079;SDS011;13071;48.868;9.996;2023-05-07T13:00:33;1.40;;;1.30;;
25079;SDS011;13071;48.868;9.996;2023-05-07T13:03:00;3.33;;;1.80;;
25079;SDS011;13071;48.868;9.996;2023-05-07T13:05:26;1.90;;;1.80;;
25079;SDS011;13071;48.868;9.996;2023-05-07T13:07:53;1.48;;;1.48;;
25079;SDS011;13071;48.868;9.996;2023-05-07T13:10:21;1.67;;;1.50;;
25079;SDS011;13071;48.868;9.996;2023-05-07T13:12:48;1.70;;;1.60;;
25079;SDS011;13071;48.868;9.996;2023-05-07T13:15:15;1.70;;;1.38;;
25079;SDS011;13071;48.868;9.996;2023-05-07T13:17:44;1.77;;;1.65;;
25079;SDS011;13071;48.868;9.996;2023-05-07T13:20:11;1.98;;;1.88;;
25079;SDS011;13071;48.868;9.996;2023-05-07T13:22:38;2.03;;;1.92;;
25079;SDS011;13071;48.868;9.996;2023-05-07T13:25:05;2.00;;;1.90;;
25079;SDS011;13071;48.868;9.996;2023-05-07T13:27:33;1.92;;;1.70;;
25079;SDS011;13071;48.868;9.996;2023-05-07T13:30:01;1.92;;;1.83;;
25079;SDS011;13071;48.868;9.996;2023-05-07T13:32:29;3.42;;;1.92;;
25079;SDS011;13071;48.868;9.996;2023-05-07T13:34:57;1.80;;;1.65;;
25079;SDS011;13071;48.868;9.996;2023-05-07T13:37:24;2.17;;;1.98;;
25079;SDS011;13071;48.868;9.996;2023-05-07T13:39:51;2.28;;;2.05;;
25079;SDS011;13071;48.868;9.996;2023-05-07T13:42:17;2.85;;;2.20;;
25079;SDS011;13071;48.868;9.996;2023-05-07T13:44:44;2.38;;;1.90;;
25079;SDS011;13071;48.868;9.996;2023-05-07T13:47:11;2.00;;;1.90;;
25079;SDS011;13071;48.868;9.996;2023-05-07T13:49:37;1.60;;;1.60;;
25079;SDS011;13071;48.868;9.996;2023-05-07T13:52:05;2.28;;;1.95;;
25079;SDS011;13071;48.868;9.996;2023-05-07T13:54:32;1.45;;;1.38;;
25079;SDS011;13071;48.868;9.996;2023-05-07T13:56:58;1.75;;;1.65;;
25079;SDS011;13071;48.868;9.996;2023-05-07T13:59:25;1.95;;;1.60;;
25079;SDS011;13071;48.868;9.996;2023-05-07T14:01:52;1.83;;;1.73;;
25079;SDS011;13071;48.868;9.996;2023-05-07T14:04:19;1.63;;;1.52;;
25079;SDS011;13071;48.868;9.996;2023-05-07T14:06:46;1.90;;;1.80;;
25079;SDS011;13071;48.868;9.996;2023-05-07T14:09:14;2.10;;;1.52;;
25079;SDS011;13071;48.868;9.996;2023-05-07T14:11:40;2.45;;;1.80;;
25079;SDS011;13071;48.868;9.996;2023-05-07T14:14:07;1.90;;;1.65;;
25079;SDS011;13071;48.868;9.996;2023-05-07T14:16:35;2.90;;;1.70;;
25079;SDS011;13071;48.868;9.996;2023-05-07T14:19:02;1.73;;;1.65;;
25079;SDS011;13071;48.868;9.996;2023-05-07T14:21:28;1.80;;;1.70;;
25079;SDS011;13071;48.868;9.996;2023-05-07T14:23:55;2.67;;;1.75;;
25079;SDS011;13071;48.868;9.996;2023-05-07T14:26:23;2.00;;;1.90;;
25079;SDS011;13071;48.868;9.996;2023-05-07T14:28:52;2.28;;;2.10;;
25079;SDS011;13071;48.868;9.996;2023-05-07T14:31:20;2.10;;;2.00;;
25079;SDS011;13071;48.868;9.996;2023-05-07T14:33:46;1.88;;;1.65;;
25079;SDS011;13071;48.868;9.996;2023-05-07T14:36:14;2.92;;;2.10;;
25079;SDS011;13071;48.868;9.996;2023-05-07T14:38:41;1.73;;;1.63;;
25079;SDS011;13071;48.868;9.996;2023-05-07T14:41:08;2.22;;;2.08;;
25079;SDS011;13071;48.868;9.996;2023-05-07T14:43:35;2.17;;;2.00;;
25079;SDS011;13071;48.868;9.996;2023-05-07T14:46:02;2.30;;;1.90;;
25079;SDS011;13071;48.868;9.996;2023-05-07T14:48:29;2.13;;;2.03;;
25079;SDS011;13071;48.868;9.996;2023-05-07T14:50:55;4.72;;;1.90;;
25079;SDS011;13071;48.868;9.996;2023-05-07T14:53:22;1.83;;;1.70;;
25079;SDS011;13071;48.868;9.996;2023-05-07T14:55:49;2.13;;;2.03;;
25079;SDS011;13071;48.868;9.996;2023-05-07T14:58:15;2.33;;;2.08;;
25079;SDS011;13071;48.868;9.996;2023-05-07T15:00:43;2.95;;;2.08;;
25079;SDS011;13071;48.868;9.996;2023-05-07T15:03:10;4.30;;;1.92;;